Plateau City, Colorado
Current Conditions -  °F | °C
As of 12:53 AM on Monday 24 Nov 2014 (Local Time) from KRIL Reporting Station
Clear Clear  
Wind Chill: 12°   Ceiling: Unl
Heat Index: 19°   Visibility: 10mi
Dew Point: 11°   Wind: 5mph
Humidity: 71%   Direction: 130°SE
Pressure: 30.12"   Gusts: NA
Location:  39.245°N, 107.783°W
Report Text: KRIL 240753Z AUTO 13004KT 10SM CLR M07/M12 A3012 RMK AO2 SLP226 T10721117
Loading
Personal Weather Stations






























Interactive Weather Map New forecast layout! Learn more

10-Day Weather Forecast

Advertisements
Track Severe Weather on mobile